sensor_id;sensor_type;location;lat;lon;timestamp;pressure;altitude;pressure_sealevel;temperature;humidity
79481;BME280;68944;48.262;14.208;2023-08-20T00:00:20;98659.03;;;25.58;nan
79481;BME280;68944;48.262;14.208;2023-08-20T00:02:46;98674.34;;;25.54;nan
79481;BME280;68944;48.262;14.208;2023-08-20T00:05:13;98671.03;;;25.66;nan
79481;BME280;68944;48.262;14.208;2023-08-20T00:07:39;98667.59;;;25.74;nan
79481;BME280;68944;48.262;14.208;2023-08-20T00:10:05;98674.47;;;25.81;nan
79481;BME280;68944;48.262;14.208;2023-08-20T00:12:31;98674.31;;;25.77;nan
79481;BME280;68944;48.262;14.208;2023-08-20T00:15:03;98685.84;;;25.60;nan
79481;BME280;68944;48.262;14.208;2023-08-20T00:17:37;98688.47;;;25.42;nan
79481;BME280;68944;48.262;14.208;2023-08-20T00:20:05;98693.53;;;25.34;nan
79481;BME280;68944;48.262;14.208;2023-08-20T00:22:36;98685.63;;;25.47;nan
79481;BME280;68944;48.262;14.208;2023-08-20T00:25:03;98687.78;;;25.59;nan
79481;BME280;68944;48.262;14.208;2023-08-20T00:27:29;98680.41;;;25.60;nan
79481;BME280;68944;48.262;14.208;2023-08-20T00:29:55;98680.72;;;25.58;nan
79481;BME280;68944;48.262;14.208;2023-08-20T00:32:20;98681.19;;;25.51;nan
79481;BME280;68944;48.262;14.208;2023-08-20T00:34:46;98685.19;;;25.54;nan
79481;BME280;68944;48.262;14.208;2023-08-20T00:37:12;98688.81;;;25.49;nan
79481;BME280;68944;48.262;14.208;2023-08-20T00:39:38;98693.28;;;25.45;nan
79481;BME280;68944;48.262;14.208;2023-08-20T00:42:04;98694.38;;;25.44;nan
79481;BME280;68944;48.262;14.208;2023-08-20T00:44:30;98693.09;;;25.41;nan
79481;BME280;68944;48.262;14.208;2023-08-20T00:46:56;98694.53;;;25.39;nan
79481;BME280;68944;48.262;14.208;2023-08-20T00:49:22;98693.03;;;25.32;nan
79481;BME280;68944;48.262;14.208;2023-08-20T00:51:48;98691.94;;;25.33;nan
79481;BME280;68944;48.262;14.208;2023-08-20T00:54:14;98697.16;;;25.30;nan
79481;BME280;68944;48.262;14.208;2023-08-20T00:56:40;98691.06;;;25.24;nan
79481;BME280;68944;48.262;14.208;2023-08-20T00:59:06;98693.41;;;25.17;nan
79481;BME280;68944;48.262;14.208;2023-08-20T01:01:31;98695.44;;;25.11;nan
79481;BME280;68944;48.262;14.208;2023-08-20T01:03:57;98690.81;;;25.11;nan
79481;BME280;68944;48.262;14.208;2023-08-20T01:06:36;98701.06;;;25.15;nan
79481;BME280;68944;48.262;14.208;2023-08-20T01:12:02;98690.00;;;25.11;nan
79481;BME280;68944;48.262;14.208;2023-08-20T01:14:29;98696.69;;;25.05;nan
79481;BME280;68944;48.262;14.208;2023-08-20T01:16:55;98691.88;;;25.02;nan
79481;BME280;68944;48.262;14.208;2023-08-20T01:19:22;98688.47;;;24.96;nan
79481;BME280;68944;48.262;14.208;2023-08-20T01:29:41;98692.28;;;24.58;nan
79481;BME280;68944;48.262;14.208;2023-08-20T01:32:07;98693.38;;;24.57;nan
79481;BME280;68944;48.262;14.208;2023-08-20T01:34:33;98693.06;;;24.58;nan
79481;BME280;68944;48.262;14.208;2023-08-20T01:36:59;98694.06;;;24.62;nan
79481;BME280;68944;48.262;14.208;2023-08-20T01:39:24;98695.09;;;24.66;nan
79481;BME280;68944;48.262;14.208;2023-08-20T01:41:50;98701.00;;;24.69;nan
79481;BME280;68944;48.262;14.208;2023-08-20T01:44:15;98708.00;;;24.70;nan
79481;BME280;68944;48.262;14.208;2023-08-20T01:46:41;98705.59;;;24.68;nan
79481;BME280;68944;48.262;14.208;2023-08-20T01:49:06;98708.81;;;24.70;nan
79481;BME280;68944;48.262;14.208;2023-08-20T01:51:32;98706.59;;;24.72;nan
79481;BME280;68944;48.262;14.208;2023-08-20T01:53:57;98700.34;;;24.72;nan
79481;BME280;68944;48.262;14.208;2023-08-20T01:56:23;98705.78;;;24.72;nan
79481;BME280;68944;48.262;14.208;2023-08-20T01:58:48;98705.59;;;24.68;nan
79481;BME280;68944;48.262;14.208;2023-08-20T02:01:14;98706.63;;;24.58;nan
79481;BME280;68944;48.262;14.208;2023-08-20T02:03:39;98695.59;;;24.54;nan
79481;BME280;68944;48.262;14.208;2023-08-20T02:06:05;98714.31;;;24.65;nan
79481;BME280;68944;48.262;14.208;2023-08-20T02:08:31;98702.56;;;24.70;nan
79481;BME280;68944;48.262;14.208;2023-08-20T02:11:03;98717.09;;;24.74;nan
79481;BME280;68944;48.262;14.208;2023-08-20T02:13:30;98711.19;;;24.72;nan
79481;BME280;68944;48.262;14.208;2023-08-20T02:16:03;98705.22;;;24.61;nan
79481;BME280;68944;48.262;14.208;2023-08-20T02:18:29;98698.81;;;24.57;nan
79481;BME280;68944;48.262;14.208;2023-08-20T02:20:55;98707.84;;;24.52;nan
79481;BME280;68944;48.262;14.208;2023-08-20T02:23:20;98707.66;;;24.48;nan
79481;BME280;68944;48.262;14.208;2023-08-20T02:25:47;98707.53;;;24.39;nan
79481;BME280;68944;48.262;14.208;2023-08-20T02:28:12;98703.94;;;24.16;nan
79481;BME280;68944;48.262;14.208;2023-08-20T02:30:42;98704.94;;;24.06;nan
79481;BME280;68944;48.262;14.208;2023-08-20T02:33:08;98712.97;;;23.97;nan
79481;BME280;68944;48.262;14.208;2023-08-20T02:35:35;98708.75;;;24.05;nan
79481;BME280;68944;48.262;14.208;2023-08-20T02:38:01;98712.97;;;24.25;nan
79481;BME280;68944;48.262;14.208;2023-08-20T02:40:26;98708.66;;;24.38;nan
79481;BME280;68944;48.262;14.208;2023-08-20T02:42:52;98712.88;;;24.45;nan
79481;BME280;68944;48.262;14.208;2023-08-20T02:45:17;98715.56;;;24.45;nan
79481;BME280;68944;48.262;14.208;2023-08-20T02:47:43;98715.16;;;24.37;nan
79481;BME280;68944;48.262;14.208;2023-08-20T02:50:09;98717.59;;;24.39;nan
79481;BME280;68944;48.262;14.208;2023-08-20T02:52:34;98723.19;;;24.42;nan
79481;BME280;68944;48.262;14.208;2023-08-20T02:55:00;98723.00;;;24.39;nan
79481;BME280;68944;48.262;14.208;2023-08-20T02:57:25;98715.69;;;24.25;nan
79481;BME280;68944;48.262;14.208;2023-08-20T02:59:51;98721.91;;;24.26;nan
79481;BME280;68944;48.262;14.208;2023-08-20T03:02:16;98729.50;;;24.24;nan
79481;BME280;68944;48.262;14.208;2023-08-20T03:04:43;98730.88;;;24.21;nan
79481;BME280;68944;48.262;14.208;2023-08-20T03:07:08;98730.47;;;24.14;nan
79481;BME280;68944;48.262;14.208;2023-08-20T03:09:34;98726.88;;;24.04;nan
79481;BME280;68944;48.262;14.208;2023-08-20T03:11:59;98729.38;;;24.01;nan
79481;BME280;68944;48.262;14.208;2023-08-20T03:14:25;98728.19;;;23.79;nan
79481;BME280;68944;48.262;14.208;2023-08-20T03:16:50;98727.75;;;23.71;nan
79481;BME280;68944;48.262;14.208;2023-08-20T03:19:16;98727.25;;;23.69;nan
79481;BME280;68944;48.262;14.208;2023-08-20T03:21:41;98736.78;;;23.81;nan
79481;BME280;68944;48.262;14.208;2023-08-20T03:24:07;98727.66;;;23.91;nan
79481;BME280;68944;48.262;14.208;2023-08-20T03:26:33;98730.50;;;24.00;nan
79481;BME280;68944;48.262;14.208;2023-08-20T03:28:58;98728.69;;;23.95;nan
79481;BME280;68944;48.262;14.208;2023-08-20T03:31:24;98729.47;;;23.95;nan
79481;BME280;68944;48.262;14.208;2023-08-20T03:33:50;98735.91;;;24.00;nan
79481;BME280;68944;48.262;14.208;2023-08-20T03:36:16;98732.00;;;23.92;nan
79481;BME280;68944;48.262;14.208;2023-08-20T03:38:42;98741.69;;;23.93;nan
79481;BME280;68944;48.262;14.208;2023-08-20T03:41:07;98744.13;;;23.94;nan
79481;BME280;68944;48.262;14.208;2023-08-20T03:43:35;98749.53;;;23.94;nan
79481;BME280;68944;48.262;14.208;2023-08-20T03:46:01;98750.94;;;23.92;nan
79481;BME280;68944;48.262;14.208;2023-08-20T03:48:26;98735.25;;;23.74;nan
79481;BME280;68944;48.262;14.208;2023-08-20T03:50:52;98748.50;;;23.76;nan
79481;BME280;68944;48.262;14.208;2023-08-20T03:53:18;98741.88;;;23.68;nan
79481;BME280;68944;48.262;14.208;2023-08-20T03:55:49;98735.38;;;23.69;nan
79481;BME280;68944;48.262;14.208;2023-08-20T03:58:16;98743.47;;;23.69;nan
79481;BME280;68944;48.262;14.208;2023-08-20T04:00:42;98739.88;;;23.74;nan
79481;BME280;68944;48.262;14.208;2023-08-20T04:03:08;98745.81;;;23.76;nan
79481;BME280;68944;48.262;14.208;2023-08-20T04:05:37;98739.09;;;23.73;nan
79481;BME280;68944;48.262;14.208;2023-08-20T04:08:04;98743.47;;;23.69;nan
79481;BME280;68944;48.262;14.208;2023-08-20T04:10:30;98746.28;;;23.64;nan
79481;BME280;68944;48.262;14.208;2023-08-20T04:12:57;98746.56;;;23.62;nan
79481;BME280;68944;48.262;14.208;2023-08-20T04:15:23;98743.94;;;23.57;nan
79481;BME280;68944;48.262;14.208;2023-08-20T04:17:48;98744.34;;;23.50;nan
79481;BME280;68944;48.262;14.208;2023-08-20T04:20:15;98751.97;;;23.43;nan
79481;BME280;68944;48.262;14.208;2023-08-20T04:22:41;98751.13;;;23.48;nan
79481;BME280;68944;48.262;14.208;2023-08-20T04:25:07;98761.63;;;23.49;nan
79481;BME280;68944;48.262;14.208;2023-08-20T04:27:33;98760.06;;;23.48;nan
79481;BME280;68944;48.262;14.208;2023-08-20T04:29:58;98753.84;;;23.48;nan
79481;BME280;68944;48.262;14.208;2023-08-20T04:32:24;98762.44;;;23.50;nan
79481;BME280;68944;48.262;14.208;2023-08-20T04:34:50;98765.47;;;23.48;nan
79481;BME280;68944;48.262;14.208;2023-08-20T04:37:19;98754.84;;;23.33;nan
79481;BME280;68944;48.262;14.208;2023-08-20T04:39:45;98772.38;;;23.35;nan
79481;BME280;68944;48.262;14.208;2023-08-20T04:42:10;98769.75;;;23.30;nan
79481;BME280;68944;48.262;14.208;2023-08-20T04:44:36;98763.56;;;23.29;nan
79481;BME280;68944;48.262;14.208;2023-08-20T04:47:02;98765.94;;;23.31;nan
79481;BME280;68944;48.262;14.208;2023-08-20T04:49:29;98766.16;;;23.35;nan
79481;BME280;68944;48.262;14.208;2023-08-20T04:51:55;98762.28;;;23.41;nan
79481;BME280;68944;48.262;14.208;2023-08-20T04:54:21;98763.00;;;23.47;nan
79481;BME280;68944;48.262;14.208;2023-08-20T04:56:47;98766.47;;;23.52;nan
79481;BME280;68944;48.262;14.208;2023-08-20T04:59:13;98762.06;;;23.57;nan
79481;BME280;68944;48.262;14.208;2023-08-20T05:01:50;98770.50;;;23.55;nan
79481;BME280;68944;48.262;14.208;2023-08-20T05:04:19;98767.56;;;23.51;nan
79481;BME280;68944;48.262;14.208;2023-08-20T05:06:44;98763.88;;;23.42;nan
79481;BME280;68944;48.262;14.208;2023-08-20T05:09:10;98761.69;;;23.44;nan
79481;BME280;68944;48.262;14.208;2023-08-20T05:11:35;98767.97;;;23.39;nan
79481;BME280;68944;48.262;14.208;2023-08-20T05:14:01;98767.03;;;23.49;nan
79481;BME280;68944;48.262;14.208;2023-08-20T05:16:26;98771.31;;;23.70;nan
79481;BME280;68944;48.262;14.208;2023-08-20T05:18:52;98781.16;;;23.80;nan
79481;BME280;68944;48.262;14.208;2023-08-20T05:21:18;98785.88;;;23.88;nan
79481;BME280;68944;48.262;14.208;2023-08-20T05:23:43;98789.81;;;23.96;nan
79481;BME280;68944;48.262;14.208;2023-08-20T05:26:09;98780.59;;;23.97;nan
79481;BME280;68944;48.262;14.208;2023-08-20T05:28:35;98783.69;;;23.90;nan
79481;BME280;68944;48.262;14.208;2023-08-20T05:31:00;98793.25;;;24.02;nan
79481;BME280;68944;48.262;14.208;2023-08-20T05:33:26;98790.91;;;24.09;nan
79481;BME280;68944;48.262;14.208;2023-08-20T05:35:53;98793.25;;;24.16;nan
79481;BME280;68944;48.262;14.208;2023-08-20T05:38:19;98788.94;;;24.15;nan
79481;BME280;68944;48.262;14.208;2023-08-20T05:40:46;98793.41;;;24.25;nan
79481;BME280;68944;48.262;14.208;2023-08-20T05:43:12;98798.19;;;24.28;nan
79481;BME280;68944;48.262;14.208;2023-08-20T05:45:38;98801.94;;;24.32;nan
79481;BME280;68944;48.262;14.208;2023-08-20T05:48:04;98799.09;;;24.37;nan
79481;BME280;68944;48.262;14.208;2023-08-20T05:50:30;98792.88;;;24.37;nan
79481;BME280;68944;48.262;14.208;2023-08-20T05:52:55;98804.63;;;24.46;nan
79481;BME280;68944;48.262;14.208;2023-08-20T05:55:21;98802.13;;;24.50;nan
79481;BME280;68944;48.262;14.208;2023-08-20T05:57:47;98794.91;;;24.31;nan
79481;BME280;68944;48.262;14.208;2023-08-20T06:00:12;98802.31;;;24.39;nan
79481;BME280;68944;48.262;14.208;2023-08-20T06:02:40;98808.03;;;24.52;nan
79481;BME280;68944;48.262;14.208;2023-08-20T06:05:07;98794.09;;;24.59;nan
79481;BME280;68944;48.262;14.208;2023-08-20T06:07:33;98800.72;;;24.66;nan
79481;BME280;68944;48.262;14.208;2023-08-20T06:09:58;98799.50;;;24.73;nan
79481;BME280;68944;48.262;14.208;2023-08-20T06:12:24;98799.69;;;24.76;nan
79481;BME280;68944;48.262;14.208;2023-08-20T06:14:49;98807.91;;;24.85;nan
79481;BME280;68944;48.262;14.208;2023-08-20T06:17:15;98810.09;;;24.83;nan
79481;BME280;68944;48.262;14.208;2023-08-20T06:19:41;98804.47;;;24.94;nan
79481;BME280;68944;48.262;14.208;2023-08-20T06:22:07;98801.38;;;24.86;nan
79481;BME280;68944;48.262;14.208;2023-08-20T06:24:33;98797.84;;;24.86;nan
79481;BME280;68944;48.262;14.208;2023-08-20T06:26:58;98799.38;;;24.92;nan
79481;BME280;68944;48.262;14.208;2023-08-20T06:29:24;98805.28;;;24.94;nan
79481;BME280;68944;48.262;14.208;2023-08-20T06:31:49;98800.28;;;24.87;nan
79481;BME280;68944;48.262;14.208;2023-08-20T06:34:15;98801.19;;;24.97;nan
79481;BME280;68944;48.262;14.208;2023-08-20T06:36:41;98796.94;;;25.05;nan
79481;BME280;68944;48.262;14.208;2023-08-20T06:39:06;98798.75;;;25.09;nan
79481;BME280;68944;48.262;14.208;2023-08-20T06:41:33;98806.03;;;25.23;nan
79481;BME280;68944;48.262;14.208;2023-08-20T06:43:59;98802.59;;;25.31;nan
79481;BME280;68944;48.262;14.208;2023-08-20T06:46:24;98809.69;;;25.41;nan
79481;BME280;68944;48.262;14.208;2023-08-20T06:48:50;98800.28;;;25.39;nan
79481;BME280;68944;48.262;14.208;2023-08-20T06:51:19;98808.28;;;25.44;nan
79481;BME280;68944;48.262;14.208;2023-08-20T06:53:45;98810.56;;;25.51;nan
79481;BME280;68944;48.262;14.208;2023-08-20T06:56:11;98815.38;;;25.54;nan
79481;BME280;68944;48.262;14.208;2023-08-20T06:58:38;98816.72;;;25.42;nan
79481;BME280;68944;48.262;14.208;2023-08-20T07:01:04;98823.44;;;25.45;nan
79481;BME280;68944;48.262;14.208;2023-08-20T07:03:33;98818.03;;;25.45;nan
79481;BME280;68944;48.262;14.208;2023-08-20T07:05:59;98826.09;;;25.36;nan
79481;BME280;68944;48.262;14.208;2023-08-20T07:08:25;98827.50;;;25.33;nan
79481;BME280;68944;48.262;14.208;2023-08-20T07:10:50;98826.13;;;25.22;nan
79481;BME280;68944;48.262;14.208;2023-08-20T07:13:16;98828.72;;;25.27;nan
79481;BME280;68944;48.262;14.208;2023-08-20T07:15:41;98834.50;;;25.34;nan
79481;BME280;68944;48.262;14.208;2023-08-20T07:18:07;98831.47;;;25.50;nan
79481;BME280;68944;48.262;14.208;2023-08-20T07:20:32;98833.75;;;25.57;nan
79481;BME280;68944;48.262;14.208;2023-08-20T07:22:58;98839.94;;;25.72;nan
79481;BME280;68944;48.262;14.208;2023-08-20T07:25:23;98833.56;;;25.76;nan
79481;BME280;68944;48.262;14.208;2023-08-20T07:27:49;98837.97;;;25.86;nan
79481;BME280;68944;48.262;14.208;2023-08-20T07:30:16;98840.91;;;25.99;nan
79481;BME280;68944;48.262;14.208;2023-08-20T07:32:41;98834.28;;;26.14;nan
79481;BME280;68944;48.262;14.208;2023-08-20T07:35:07;98839.28;;;26.30;nan
79481;BME280;68944;48.262;14.208;2023-08-20T07:37:33;98836.78;;;26.33;nan
79481;BME280;68944;48.262;14.208;2023-08-20T07:39:59;98840.66;;;26.41;nan
79481;BME280;68944;48.262;14.208;2023-08-20T07:42:24;98839.09;;;26.49;nan
79481;BME280;68944;48.262;14.208;2023-08-20T07:44:50;98832.72;;;26.54;nan
79481;BME280;68944;48.262;14.208;2023-08-20T07:47:15;98842.50;;;26.64;nan
79481;BME280;68944;48.262;14.208;2023-08-20T07:49:41;98843.34;;;26.73;nan
79481;BME280;68944;48.262;14.208;2023-08-20T07:52:06;98853.25;;;26.78;nan
79481;BME280;68944;48.262;14.208;2023-08-20T07:54:32;98827.66;;;26.79;nan
79481;BME280;68944;48.262;14.208;2023-08-20T07:56:57;98842.22;;;26.92;nan
79481;BME280;68944;48.262;14.208;2023-08-20T07:59:23;98849.91;;;26.99;nan
79481;BME280;68944;48.262;14.208;2023-08-20T08:01:48;98847.53;;;27.06;nan
79481;BME280;68944;48.262;14.208;2023-08-20T08:04:14;98831.09;;;27.11;nan
79481;BME280;68944;48.262;14.208;2023-08-20T08:06:40;98850.44;;;27.10;nan
79481;BME280;68944;48.262;14.208;2023-08-20T08:09:26;98849.50;;;27.14;nan
79481;BME280;68944;48.262;14.208;2023-08-20T08:11:52;98837.03;;;27.22;nan
79481;BME280;68944;48.262;14.208;2023-08-20T08:14:18;98835.44;;;27.30;nan
79481;BME280;68944;48.262;14.208;2023-08-20T08:16:45;98839.91;;;27.44;nan
79481;BME280;68944;48.262;14.208;2023-08-20T08:19:10;98831.91;;;27.47;nan
79481;BME280;68944;48.262;14.208;2023-08-20T08:21:36;98837.50;;;27.60;nan
79481;BME280;68944;48.262;14.208;2023-08-20T08:24:01;98837.31;;;27.74;nan
79481;BME280;68944;48.262;14.208;2023-08-20T08:26:28;98838.47;;;27.82;nan
79481;BME280;68944;48.262;14.208;2023-08-20T08:28:53;98841.66;;;27.93;nan
79481;BME280;68944;48.262;14.208;2023-08-20T08:31:19;98843.06;;;27.99;nan
79481;BME280;68944;48.262;14.208;2023-08-20T08:33:44;98838.69;;;28.16;nan
79481;BME280;68944;48.262;14.208;2023-08-20T08:36:10;98838.50;;;28.30;nan
79481;BME280;68944;48.262;14.208;2023-08-20T08:38:37;98840.22;;;28.44;nan
79481;BME280;68944;48.262;14.208;2023-08-20T08:41:10;98850.59;;;28.50;nan
79481;BME280;68944;48.262;14.208;2023-08-20T08:43:37;98842.66;;;28.67;nan
79481;BME280;68944;48.262;14.208;2023-08-20T08:46:12;98839.88;;;28.76;nan
79481;BME280;68944;48.262;14.208;2023-08-20T08:48:42;98841.91;;;28.88;nan
79481;BME280;68944;48.262;14.208;2023-08-20T08:51:08;98841.38;;;28.94;nan
79481;BME280;68944;48.262;14.208;2023-08-20T08:53:35;98838.94;;;29.02;nan
79481;BME280;68944;48.262;14.208;2023-08-20T08:56:01;98840.50;;;29.12;nan
79481;BME280;68944;48.262;14.208;2023-08-20T08:58:28;98832.53;;;29.28;nan
79481;BME280;68944;48.262;14.208;2023-08-20T09:00:53;98838.25;;;29.35;nan
79481;BME280;68944;48.262;14.208;2023-08-20T09:03:19;98829.84;;;29.40;nan
79481;BME280;68944;48.262;14.208;2023-08-20T09:05:49;98828.50;;;29.47;nan
79481;BME280;68944;48.262;14.208;2023-08-20T09:08:22;98831.00;;;29.52;nan
79481;BME280;68944;48.262;14.208;2023-08-20T09:10:52;98833.44;;;29.53;nan
79481;BME280;68944;48.262;14.208;2023-08-20T09:13:25;98830.16;;;29.60;nan
79481;BME280;68944;48.262;14.208;2023-08-20T09:15:52;98836.19;;;29.66;nan
79481;BME280;68944;48.262;14.208;2023-08-20T09:18:18;98841.81;;;29.70;nan
79481;BME280;68944;48.262;14.208;2023-08-20T09:20:44;98838.44;;;29.85;nan
79481;BME280;68944;48.262;14.208;2023-08-20T09:23:13;98842.22;;;30.06;nan
79481;BME280;68944;48.262;14.208;2023-08-20T09:25:39;98841.91;;;30.20;nan
79481;BME280;68944;48.262;14.208;2023-08-20T09:28:05;98834.91;;;30.44;nan
79481;BME280;68944;48.262;14.208;2023-08-20T09:30:31;98836.47;;;30.70;nan
79481;BME280;68944;48.262;14.208;2023-08-20T09:33:04;98839.22;;;30.83;nan
79481;BME280;68944;48.262;14.208;2023-08-20T09:35:30;98843.06;;;30.82;nan
79481;BME280;68944;48.262;14.208;2023-08-20T09:37:59;98838.75;;;30.93;nan
79481;BME280;68944;48.262;14.208;2023-08-20T09:40:26;98843.09;;;30.94;nan
79481;BME280;68944;48.262;14.208;2023-08-20T09:42:53;98850.25;;;30.86;nan
79481;BME280;68944;48.262;14.208;2023-08-20T09:45:20;98839.22;;;30.83;nan
79481;BME280;68944;48.262;14.208;2023-08-20T09:47:49;98846.50;;;30.91;nan
79481;BME280;68944;48.262;14.208;2023-08-20T09:50:21;98847.53;;;30.99;nan
79481;BME280;68944;48.262;14.208;2023-08-20T09:53:12;98843.75;;;31.04;nan
79481;BME280;68944;48.262;14.208;2023-08-20T09:55:39;98841.94;;;30.95;nan
79481;BME280;68944;48.262;14.208;2023-08-20T09:58:08;98835.69;;;30.95;nan
79481;BME280;68944;48.262;14.208;2023-08-20T10:00:34;98841.25;;;30.98;nan
79481;BME280;68944;48.262;14.208;2023-08-20T10:03:01;98839.09;;;31.04;nan
79481;BME280;68944;48.262;14.208;2023-08-20T10:05:27;98834.19;;;30.97;nan
79481;BME280;68944;48.262;14.208;2023-08-20T10:07:54;98838.28;;;30.91;nan
79481;BME280;68944;48.262;14.208;2023-08-20T10:10:20;98836.72;;;30.90;nan
79481;BME280;68944;48.262;14.208;2023-08-20T10:12:46;98831.22;;;31.03;nan
79481;BME280;68944;48.262;14.208;2023-08-20T10:15:14;98835.78;;;30.98;nan
79481;BME280;68944;48.262;14.208;2023-08-20T10:17:43;98837.94;;;31.05;nan
79481;BME280;68944;48.262;14.208;2023-08-20T10:20:10;98838.97;;;31.00;nan
79481;BME280;68944;48.262;14.208;2023-08-20T10:22:45;98837.47;;;31.03;nan
79481;BME280;68944;48.262;14.208;2023-08-20T10:25:12;98828.31;;;31.11;nan
79481;BME280;68944;48.262;14.208;2023-08-20T10:27:46;98824.38;;;31.09;nan
79481;BME280;68944;48.262;14.208;2023-08-20T10:30:19;98825.47;;;31.20;nan
79481;BME280;68944;48.262;14.208;2023-08-20T10:32:57;98820.59;;;31.14;nan
79481;BME280;68944;48.262;14.208;2023-08-20T10:35:25;98828.72;;;30.97;nan
79481;BME280;68944;48.262;14.208;2023-08-20T10:38:02;98817.19;;;31.04;nan
79481;BME280;68944;48.262;14.208;2023-08-20T10:43:32;98823.84;;;31.32;nan
79481;BME280;68944;48.262;14.208;2023-08-20T10:46:03;98816.66;;;31.27;nan
79481;BME280;68944;48.262;14.208;2023-08-20T10:48:30;98823.41;;;31.30;nan
79481;BME280;68944;48.262;14.208;2023-08-20T10:50:56;98828.75;;;31.26;nan
79481;BME280;68944;48.262;14.208;2023-08-20T10:53:22;98822.59;;;31.29;nan
79481;BME280;68944;48.262;14.208;2023-08-20T10:55:48;98824.13;;;31.43;nan
79481;BME280;68944;48.262;14.208;2023-08-20T10:58:14;98825.94;;;31.51;nan
79481;BME280;68944;48.262;14.208;2023-08-20T11:00:41;98820.50;;;31.67;nan
79481;BME280;68944;48.262;14.208;2023-08-20T11:03:07;98824.50;;;31.86;nan
79481;BME280;68944;48.262;14.208;2023-08-20T11:05:33;98823.81;;;31.89;nan
79481;BME280;68944;48.262;14.208;2023-08-20T11:07:59;98828.75;;;32.00;nan
79481;BME280;68944;48.262;14.208;2023-08-20T11:10:26;98827.81;;;32.08;nan
79481;BME280;68944;48.262;14.208;2023-08-20T11:12:52;98821.53;;;32.24;nan
79481;BME280;68944;48.262;14.208;2023-08-20T11:15:18;98832.69;;;32.31;nan
79481;BME280;68944;48.262;14.208;2023-08-20T11:17:47;98827.88;;;32.44;nan
79481;BME280;68944;48.262;14.208;2023-08-20T11:20:16;98829.28;;;32.54;nan
79481;BME280;68944;48.262;14.208;2023-08-20T11:22:41;98818.16;;;32.63;nan
79481;BME280;68944;48.262;14.208;2023-08-20T11:25:11;98821.22;;;32.78;nan
79481;BME280;68944;48.262;14.208;2023-08-20T11:27:43;98817.56;;;32.90;nan
79481;BME280;68944;48.262;14.208;2023-08-20T11:30:10;98822.63;;;33.08;nan
79481;BME280;68944;48.262;14.208;2023-08-20T11:32:37;98817.16;;;33.28;nan
79481;BME280;68944;48.262;14.208;2023-08-20T11:35:04;98823.06;;;33.49;nan
79481;BME280;68944;48.262;14.208;2023-08-20T11:37:30;98814.66;;;33.62;nan
79481;BME280;68944;48.262;14.208;2023-08-20T11:39:56;98819.72;;;33.80;nan
79481;BME280;68944;48.262;14.208;2023-08-20T11:42:22;98816.22;;;34.06;nan
79481;BME280;68944;48.262;14.208;2023-08-20T11:44:48;98816.31;;;34.34;nan
79481;BME280;68944;48.262;14.208;2023-08-20T11:47:17;98815.38;;;34.53;nan
79481;BME280;68944;48.262;14.208;2023-08-20T11:49:43;98817.09;;;34.61;nan
79481;BME280;68944;48.262;14.208;2023-08-20T11:52:09;98812.53;;;34.73;nan
79481;BME280;68944;48.262;14.208;2023-08-20T11:54:35;98815.53;;;34.91;nan
79481;BME280;68944;48.262;14.208;2023-08-20T11:57:03;98812.03;;;34.94;nan
79481;BME280;68944;48.262;14.208;2023-08-20T11:59:29;98812.19;;;35.05;nan
79481;BME280;68944;48.262;14.208;2023-08-20T12:01:57;98805.25;;;35.19;nan
79481;BME280;68944;48.262;14.208;2023-08-20T12:04:28;98799.56;;;35.35;nan
79481;BME280;68944;48.262;14.208;2023-08-20T12:07:04;98807.19;;;35.49;nan
79481;BME280;68944;48.262;14.208;2023-08-20T12:09:31;98808.69;;;35.43;nan
79481;BME280;68944;48.262;14.208;2023-08-20T12:11:57;98805.09;;;35.39;nan
79481;BME280;68944;48.262;14.208;2023-08-20T12:14:23;98812.41;;;35.27;nan
79481;BME280;68944;48.262;14.208;2023-08-20T12:16:49;98801.53;;;35.35;nan
79481;BME280;68944;48.262;14.208;2023-08-20T12:19:16;98800.00;;;35.41;nan
79481;BME280;68944;48.262;14.208;2023-08-20T12:21:42;98802.50;;;35.53;nan
79481;BME280;68944;48.262;14.208;2023-08-20T12:24:11;98805.19;;;35.50;nan
79481;BME280;68944;48.262;14.208;2023-08-20T12:26:38;98801.31;;;35.20;nan
79481;BME280;68944;48.262;14.208;2023-08-20T12:29:03;98799.56;;;35.04;nan
79481;BME280;68944;48.262;14.208;2023-08-20T12:31:29;98799.13;;;34.71;nan
79481;BME280;68944;48.262;14.208;2023-08-20T12:33:54;98791.59;;;34.37;nan
79481;BME280;68944;48.262;14.208;2023-08-20T12:36:20;98785.13;;;34.26;nan
79481;BME280;68944;48.262;14.208;2023-08-20T12:38:45;98782.34;;;34.49;nan
79481;BME280;68944;48.262;14.208;2023-08-20T12:41:11;98785.44;;;34.48;nan
79481;BME280;68944;48.262;14.208;2023-08-20T12:43:37;98776.97;;;34.60;nan
79481;BME280;68944;48.262;14.208;2023-08-20T12:46:02;98783.22;;;34.57;nan
79481;BME280;68944;48.262;14.208;2023-08-20T12:48:29;98783.09;;;34.77;nan
79481;BME280;68944;48.262;14.208;2023-08-20T12:50:55;98785.41;;;35.02;nan
79481;BME280;68944;48.262;14.208;2023-08-20T12:53:21;98788.75;;;35.23;nan
79481;BME280;68944;48.262;14.208;2023-08-20T12:55:46;98783.34;;;35.30;nan
79481;BME280;68944;48.262;14.208;2023-08-20T12:58:12;98776.53;;;35.20;nan
79481;BME280;68944;48.262;14.208;2023-08-20T13:00:38;98779.19;;;35.09;nan
79481;BME280;68944;48.262;14.208;2023-08-20T13:03:04;98782.81;;;35.17;nan
79481;BME280;68944;48.262;14.208;2023-08-20T13:05:30;98779.09;;;35.36;nan
79481;BME280;68944;48.262;14.208;2023-08-20T13:07:56;98778.28;;;35.74;nan
79481;BME280;68944;48.262;14.208;2023-08-20T13:10:22;98773.00;;;35.96;nan
79481;BME280;68944;48.262;14.208;2023-08-20T13:12:50;98770.34;;;36.14;nan
79481;BME280;68944;48.262;14.208;2023-08-20T13:15:17;98759.22;;;36.56;nan
79481;BME280;68944;48.262;14.208;2023-08-20T13:17:45;98766.47;;;36.94;nan
79481;BME280;68944;48.262;14.208;2023-08-20T13:20:11;98759.91;;;37.39;nan